74VA weather

Inova Fair Oaks Hospital Heliport
Fairfax, Virginia, United States

Public forecast

Using degrees Fahrenheit for public forecast. Weather courtesy of forecast.io.

METAR (pilot weather report)

Closest report is Washington Dulles International Airport, 5.1 nm (9.4 km) NW. Retrieved 2019/05/22 09:52 UTC (27 minutes ago):

KIAD 220952Z 32004KT 10SM FEW090 BKN250 10/07 A3023 RMK AO2 SLP235 T01000067

TAF (pilot weather forecast)

Closest forecast is Washington Dulles International Airport, 5.1 nm (9.4 km) NW. Retrieved 2019/05/22 06:26 UTC (4 hours ago):

TAF KIAD 220523Z 2206/2312 VRB03KT P6SM FEW120 FM221500 13005KT P6SM SCT050 SCT200 FM222100 17006KT P6SM SCT070 FM230800 18007KT P6SM BKN070